sensor_id;sensor_type;location;lat;lon;timestamp;P1;durP1;ratioP1;P2;durP2;ratioP2
51179;SDS011;37243;49.814;8.652;2022-09-21T00:01:30;1.08;;;1.08;;
51179;SDS011;37243;49.814;8.652;2022-09-21T00:03:59;0.90;;;0.90;;
51179;SDS011;37243;49.814;8.652;2022-09-21T00:06:31;1.15;;;0.90;;
51179;SDS011;37243;49.814;8.652;2022-09-21T00:09:01;0.90;;;0.90;;
51179;SDS011;37243;49.814;8.652;2022-09-21T00:11:34;0.90;;;0.90;;
51179;SDS011;37243;49.814;8.652;2022-09-21T00:14:05;1.05;;;1.00;;
51179;SDS011;37243;49.814;8.652;2022-09-21T00:16:36;1.05;;;1.02;;
51179;SDS011;37243;49.814;8.652;2022-09-21T00:19:05;1.05;;;0.95;;
51179;SDS011;37243;49.814;8.652;2022-09-21T00:21:33;0.90;;;0.90;;
51179;SDS011;37243;49.814;8.652;2022-09-21T00:24:03;1.00;;;0.90;;
51179;SDS011;37243;49.814;8.652;2022-09-21T00:26:31;1.52;;;1.00;;
51179;SDS011;37243;49.814;8.652;2022-09-21T00:29:02;0.90;;;0.90;;
51179;SDS011;37243;49.814;8.652;2022-09-21T00:31:31;1.00;;;1.00;;
51179;SDS011;37243;49.814;8.652;2022-09-21T00:33:59;1.00;;;1.00;;
51179;SDS011;37243;49.814;8.652;2022-09-21T00:36:31;0.80;;;0.80;;
51179;SDS011;37243;49.814;8.652;2022-09-21T00:39:00;1.00;;;1.00;;
51179;SDS011;37243;49.814;8.652;2022-09-21T00:41:30;0.90;;;0.90;;
51179;SDS011;37243;49.814;8.652;2022-09-21T00:47:05;1.50;;;1.10;;
51179;SDS011;37243;49.814;8.652;2022-09-21T00:49:36;0.88;;;0.88;;
51179;SDS011;37243;49.814;8.652;2022-09-21T00:52:07;1.00;;;1.00;;
51179;SDS011;37243;49.814;8.652;2022-09-21T00:54:40;1.02;;;1.00;;
51179;SDS011;37243;49.814;8.652;2022-09-21T00:57:12;1.08;;;0.90;;
51179;SDS011;37243;49.814;8.652;2022-09-21T00:59:42;1.30;;;1.00;;
51179;SDS011;37243;49.814;8.652;2022-09-21T01:02:14;1.17;;;1.10;;
51179;SDS011;37243;49.814;8.652;2022-09-21T01:04:43;1.17;;;1.08;;
51179;SDS011;37243;49.814;8.652;2022-09-21T01:07:13;0.90;;;0.90;;
51179;SDS011;37243;49.814;8.652;2022-09-21T01:09:45;1.10;;;1.00;;
51179;SDS011;37243;49.814;8.652;2022-09-21T01:12:20;0.90;;;0.90;;
51179;SDS011;37243;49.814;8.652;2022-09-21T01:15:06;0.70;;;0.70;;
51179;SDS011;37243;49.814;8.652;2022-09-21T01:17:48;0.90;;;0.90;;
51179;SDS011;37243;49.814;8.652;2022-09-21T01:26:38;1.02;;;1.02;;
51179;SDS011;37243;49.814;8.652;2022-09-21T01:29:28;0.85;;;0.85;;
51179;SDS011;37243;49.814;8.652;2022-09-21T01:32:02;1.10;;;1.00;;
51179;SDS011;37243;49.814;8.652;2022-09-21T01:34:35;0.95;;;0.95;;
51179;SDS011;37243;49.814;8.652;2022-09-21T01:37:10;0.80;;;0.80;;
51179;SDS011;37243;49.814;8.652;2022-09-21T01:39:44;0.80;;;0.80;;
51179;SDS011;37243;49.814;8.652;2022-09-21T01:42:15;1.30;;;1.20;;
51179;SDS011;37243;49.814;8.652;2022-09-21T01:44:48;0.80;;;0.80;;
51179;SDS011;37243;49.814;8.652;2022-09-21T01:47:17;1.20;;;1.20;;
51179;SDS011;37243;49.814;8.652;2022-09-21T01:49:47;1.10;;;1.00;;
51179;SDS011;37243;49.814;8.652;2022-09-21T01:52:20;0.90;;;0.90;;
51179;SDS011;37243;49.814;8.652;2022-09-21T01:54:53;0.90;;;0.90;;
51179;SDS011;37243;49.814;8.652;2022-09-21T01:57:26;0.80;;;0.80;;
51179;SDS011;37243;49.814;8.652;2022-09-21T02:00:02;0.70;;;0.70;;
51179;SDS011;37243;49.814;8.652;2022-09-21T02:02:33;0.70;;;0.70;;
51179;SDS011;37243;49.814;8.652;2022-09-21T02:05:09;0.85;;;0.85;;
51179;SDS011;37243;49.814;8.652;2022-09-21T02:07:40;0.93;;;0.88;;
51179;SDS011;37243;49.814;8.652;2022-09-21T02:10:10;1.00;;;1.00;;
51179;SDS011;37243;49.814;8.652;2022-09-21T02:12:44;1.00;;;0.90;;
51179;SDS011;37243;49.814;8.652;2022-09-21T02:15:15;0.93;;;0.93;;
51179;SDS011;37243;49.814;8.652;2022-09-21T02:17:46;0.93;;;0.93;;
51179;SDS011;37243;49.814;8.652;2022-09-21T02:20:27;1.27;;;1.20;;
51179;SDS011;37243;49.814;8.652;2022-09-21T02:23:01;0.90;;;0.90;;
51179;SDS011;37243;49.814;8.652;2022-09-21T02:25:37;0.90;;;0.90;;
51179;SDS011;37243;49.814;8.652;2022-09-21T02:28:15;1.00;;;1.00;;
51179;SDS011;37243;49.814;8.652;2022-09-21T02:30:58;0.80;;;0.80;;
51179;SDS011;37243;49.814;8.652;2022-09-21T02:33:34;0.88;;;0.88;;
51179;SDS011;37243;49.814;8.652;2022-09-21T02:36:14;1.27;;;1.08;;
51179;SDS011;37243;49.814;8.652;2022-09-21T02:38:51;1.00;;;1.00;;
51179;SDS011;37243;49.814;8.652;2022-09-21T02:41:22;1.00;;;1.00;;
51179;SDS011;37243;49.814;8.652;2022-09-21T02:43:57;0.77;;;0.77;;
51179;SDS011;37243;49.814;8.652;2022-09-21T02:46:33;0.98;;;0.95;;
51179;SDS011;37243;49.814;8.652;2022-09-21T02:49:04;1.00;;;1.00;;
51179;SDS011;37243;49.814;8.652;2022-09-21T02:51:38;0.80;;;0.80;;
51179;SDS011;37243;49.814;8.652;2022-09-21T02:54:12;0.90;;;0.90;;
51179;SDS011;37243;49.814;8.652;2022-09-21T02:56:43;0.90;;;0.90;;
51179;SDS011;37243;49.814;8.652;2022-09-21T02:59:15;0.95;;;0.95;;
51179;SDS011;37243;49.814;8.652;2022-09-21T03:01:50;1.35;;;0.90;;
51179;SDS011;37243;49.814;8.652;2022-09-21T03:04:19;1.13;;;1.13;;
51179;SDS011;37243;49.814;8.652;2022-09-21T03:06:48;1.00;;;1.00;;
51179;SDS011;37243;49.814;8.652;2022-09-21T03:09:17;0.95;;;0.95;;
51179;SDS011;37243;49.814;8.652;2022-09-21T03:11:48;0.90;;;0.90;;
51179;SDS011;37243;49.814;8.652;2022-09-21T03:14:16;1.75;;;1.00;;
51179;SDS011;37243;49.814;8.652;2022-09-21T03:16:44;0.90;;;0.90;;
51179;SDS011;37243;49.814;8.652;2022-09-21T03:19:15;1.13;;;1.13;;
51179;SDS011;37243;49.814;8.652;2022-09-21T03:21:44;1.13;;;1.02;;
51179;SDS011;37243;49.814;8.652;2022-09-21T03:24:12;1.00;;;1.00;;
51179;SDS011;37243;49.814;8.652;2022-09-21T03:27:00;0.90;;;0.90;;
51179;SDS011;37243;49.814;8.652;2022-09-21T03:29:28;0.80;;;0.80;;
51179;SDS011;37243;49.814;8.652;2022-09-21T03:31:57;0.93;;;0.93;;
51179;SDS011;37243;49.814;8.652;2022-09-21T03:34:28;0.93;;;0.93;;
51179;SDS011;37243;49.814;8.652;2022-09-21T03:36:58;0.82;;;0.82;;
51179;SDS011;37243;49.814;8.652;2022-09-21T03:39:26;0.80;;;0.80;;
51179;SDS011;37243;49.814;8.652;2022-09-21T03:41:54;0.90;;;0.90;;
51179;SDS011;37243;49.814;8.652;2022-09-21T03:44:23;0.93;;;0.93;;
51179;SDS011;37243;49.814;8.652;2022-09-21T03:46:52;0.88;;;0.88;;
51179;SDS011;37243;49.814;8.652;2022-09-21T03:49:22;1.08;;;0.90;;
51179;SDS011;37243;49.814;8.652;2022-09-21T03:51:53;0.95;;;0.95;;
51179;SDS011;37243;49.814;8.652;2022-09-21T03:54:22;0.90;;;0.90;;
51179;SDS011;37243;49.814;8.652;2022-09-21T03:56:50;1.00;;;1.00;;
51179;SDS011;37243;49.814;8.652;2022-09-21T03:59:18;0.82;;;0.82;;
51179;SDS011;37243;49.814;8.652;2022-09-21T04:01:47;1.00;;;1.00;;
51179;SDS011;37243;49.814;8.652;2022-09-21T04:04:15;2.15;;;1.00;;
51179;SDS011;37243;49.814;8.652;2022-09-21T04:06:44;0.70;;;0.70;;
51179;SDS011;37243;49.814;8.652;2022-09-21T04:09:15;0.90;;;0.90;;
51179;SDS011;37243;49.814;8.652;2022-09-21T04:11:43;0.77;;;0.77;;
51179;SDS011;37243;49.814;8.652;2022-09-21T04:14:12;1.15;;;1.05;;
51179;SDS011;37243;49.814;8.652;2022-09-21T04:16:41;0.90;;;0.90;;
51179;SDS011;37243;49.814;8.652;2022-09-21T04:19:10;0.98;;;0.98;;
51179;SDS011;37243;49.814;8.652;2022-09-21T04:21:38;0.80;;;0.80;;
51179;SDS011;37243;49.814;8.652;2022-09-21T04:24:06;1.55;;;1.10;;
51179;SDS011;37243;49.814;8.652;2022-09-21T04:26:37;0.88;;;0.88;;
51179;SDS011;37243;49.814;8.652;2022-09-21T04:29:05;0.82;;;0.82;;
51179;SDS011;37243;49.814;8.652;2022-09-21T04:31:35;0.90;;;0.90;;
51179;SDS011;37243;49.814;8.652;2022-09-21T04:34:03;0.80;;;0.80;;
51179;SDS011;37243;49.814;8.652;2022-09-21T04:36:31;0.82;;;0.80;;
51179;SDS011;37243;49.814;8.652;2022-09-21T04:39:00;0.85;;;0.85;;
51179;SDS011;37243;49.814;8.652;2022-09-21T04:41:28;0.85;;;0.85;;
51179;SDS011;37243;49.814;8.652;2022-09-21T04:43:59;0.85;;;0.85;;
51179;SDS011;37243;49.814;8.652;2022-09-21T04:46:28;0.85;;;0.85;;
51179;SDS011;37243;49.814;8.652;2022-09-21T04:48:56;0.70;;;0.70;;
51179;SDS011;37243;49.814;8.652;2022-09-21T04:51:24;1.02;;;1.00;;
51179;SDS011;37243;49.814;8.652;2022-09-21T04:53:53;0.70;;;0.70;;
51179;SDS011;37243;49.814;8.652;2022-09-21T04:56:21;0.90;;;0.90;;
51179;SDS011;37243;49.814;8.652;2022-09-21T04:58:49;0.98;;;0.98;;
51179;SDS011;37243;49.814;8.652;2022-09-21T05:01:20;0.75;;;0.75;;
51179;SDS011;37243;49.814;8.652;2022-09-21T05:03:48;0.80;;;0.80;;
51179;SDS011;37243;49.814;8.652;2022-09-21T05:06:16;0.80;;;0.80;;
51179;SDS011;37243;49.814;8.652;2022-09-21T05:08:45;0.95;;;0.95;;
51179;SDS011;37243;49.814;8.652;2022-09-21T05:11:25;0.80;;;0.80;;
51179;SDS011;37243;49.814;8.652;2022-09-21T05:13:54;1.00;;;1.00;;
51179;SDS011;37243;49.814;8.652;2022-09-21T05:16:25;0.90;;;0.90;;
51179;SDS011;37243;49.814;8.652;2022-09-21T05:18:53;0.95;;;0.95;;
51179;SDS011;37243;49.814;8.652;2022-09-21T05:21:22;1.48;;;0.90;;
51179;SDS011;37243;49.814;8.652;2022-09-21T05:23:50;1.88;;;1.20;;
51179;SDS011;37243;49.814;8.652;2022-09-21T05:26:18;1.23;;;1.10;;
51179;SDS011;37243;49.814;8.652;2022-09-21T05:28:47;1.48;;;1.10;;
51179;SDS011;37243;49.814;8.652;2022-09-21T05:31:22;1.20;;;1.00;;
51179;SDS011;37243;49.814;8.652;2022-09-21T05:34:02;1.13;;;1.13;;
51179;SDS011;37243;49.814;8.652;2022-09-21T05:36:40;2.05;;;1.30;;
51179;SDS011;37243;49.814;8.652;2022-09-21T05:39:15;2.78;;;1.02;;
51179;SDS011;37243;49.814;8.652;2022-09-21T05:41:44;3.05;;;1.42;;
51179;SDS011;37243;49.814;8.652;2022-09-21T05:44:13;1.63;;;1.50;;
51179;SDS011;37243;49.814;8.652;2022-09-21T05:46:45;5.40;;;1.90;;
51179;SDS011;37243;49.814;8.652;2022-09-21T05:49:21;5.05;;;1.70;;
51179;SDS011;37243;49.814;8.652;2022-09-21T05:51:56;3.88;;;1.50;;
51179;SDS011;37243;49.814;8.652;2022-09-21T05:54:37;3.72;;;1.48;;
51179;SDS011;37243;49.814;8.652;2022-09-21T05:57:18;2.97;;;1.35;;
51179;SDS011;37243;49.814;8.652;2022-09-21T05:59:58;1.92;;;1.67;;
51179;SDS011;37243;49.814;8.652;2022-09-21T06:02:43;2.55;;;1.52;;
51179;SDS011;37243;49.814;8.652;2022-09-21T06:05:22;3.25;;;1.25;;
51179;SDS011;37243;49.814;8.652;2022-09-21T06:07:51;2.50;;;1.40;;
51179;SDS011;37243;49.814;8.652;2022-09-21T06:10:19;3.17;;;1.63;;
51179;SDS011;37243;49.814;8.652;2022-09-21T06:12:48;3.45;;;1.35;;
51179;SDS011;37243;49.814;8.652;2022-09-21T06:15:17;2.50;;;1.80;;
51179;SDS011;37243;49.814;8.652;2022-09-21T06:17:48;3.80;;;1.73;;
51179;SDS011;37243;49.814;8.652;2022-09-21T06:20:16;2.53;;;1.92;;
51179;SDS011;37243;49.814;8.652;2022-09-21T06:22:44;4.25;;;2.13;;
51179;SDS011;37243;49.814;8.652;2022-09-21T06:25:13;4.45;;;1.77;;
51179;SDS011;37243;49.814;8.652;2022-09-21T06:27:42;1.98;;;1.75;;
51179;SDS011;37243;49.814;8.652;2022-09-21T06:30:11;3.15;;;1.95;;
51179;SDS011;37243;49.814;8.652;2022-09-21T06:32:39;2.03;;;1.85;;
51179;SDS011;37243;49.814;8.652;2022-09-21T06:35:10;2.55;;;2.13;;
51179;SDS011;37243;49.814;8.652;2022-09-21T06:37:38;4.18;;;2.63;;
51179;SDS011;37243;49.814;8.652;2022-09-21T06:40:08;2.42;;;2.20;;
51179;SDS011;37243;49.814;8.652;2022-09-21T06:42:36;4.30;;;2.13;;
51179;SDS011;37243;49.814;8.652;2022-09-21T06:45:05;2.75;;;1.98;;
51179;SDS011;37243;49.814;8.652;2022-09-21T06:47:34;2.78;;;2.08;;
51179;SDS011;37243;49.814;8.652;2022-09-21T06:50:03;3.83;;;1.67;;
51179;SDS011;37243;49.814;8.652;2022-09-21T06:52:34;3.42;;;2.00;;
51179;SDS011;37243;49.814;8.652;2022-09-21T06:55:03;2.58;;;1.80;;
51179;SDS011;37243;49.814;8.652;2022-09-21T06:57:31;2.05;;;1.80;;
51179;SDS011;37243;49.814;8.652;2022-09-21T07:00:00;1.90;;;1.80;;
51179;SDS011;37243;49.814;8.652;2022-09-21T07:02:28;2.47;;;2.05;;
51179;SDS011;37243;49.814;8.652;2022-09-21T07:04:57;2.08;;;1.88;;
51179;SDS011;37243;49.814;8.652;2022-09-21T07:07:26;2.20;;;1.70;;
51179;SDS011;37243;49.814;8.652;2022-09-21T07:09:59;2.75;;;1.80;;
51179;SDS011;37243;49.814;8.652;2022-09-21T07:12:27;2.45;;;1.80;;
51179;SDS011;37243;49.814;8.652;2022-09-21T07:14:56;3.17;;;1.83;;
51179;SDS011;37243;49.814;8.652;2022-09-21T07:17:24;2.15;;;1.73;;
51179;SDS011;37243;49.814;8.652;2022-09-21T07:19:52;1.83;;;1.73;;
51179;SDS011;37243;49.814;8.652;2022-09-21T07:22:21;2.92;;;1.80;;
51179;SDS011;37243;49.814;8.652;2022-09-21T07:24:49;1.60;;;1.50;;
51179;SDS011;37243;49.814;8.652;2022-09-21T07:27:20;3.05;;;1.88;;
51179;SDS011;37243;49.814;8.652;2022-09-21T07:29:48;3.20;;;2.88;;
51179;SDS011;37243;49.814;8.652;2022-09-21T07:32:17;3.80;;;3.40;;
51179;SDS011;37243;49.814;8.652;2022-09-21T07:34:45;3.72;;;3.38;;
51179;SDS011;37243;49.814;8.652;2022-09-21T07:37:13;3.70;;;3.40;;
51179;SDS011;37243;49.814;8.652;2022-09-21T07:39:42;3.95;;;3.20;;
51179;SDS011;37243;49.814;8.652;2022-09-21T07:42:10;3.80;;;3.50;;
51179;SDS011;37243;49.814;8.652;2022-09-21T07:44:41;3.38;;;2.90;;
51179;SDS011;37243;49.814;8.652;2022-09-21T07:47:10;2.60;;;2.40;;
51179;SDS011;37243;49.814;8.652;2022-09-21T07:49:39;3.13;;;2.63;;
51179;SDS011;37243;49.814;8.652;2022-09-21T07:52:08;2.40;;;2.17;;
51179;SDS011;37243;49.814;8.652;2022-09-21T07:54:36;2.80;;;2.60;;
51179;SDS011;37243;49.814;8.652;2022-09-21T07:57:04;4.15;;;2.38;;
51179;SDS011;37243;49.814;8.652;2022-09-21T07:59:48;2.85;;;2.28;;
51179;SDS011;37243;49.814;8.652;2022-09-21T08:02:16;2.30;;;2.10;;
51179;SDS011;37243;49.814;8.652;2022-09-21T08:04:44;2.22;;;2.03;;
51179;SDS011;37243;49.814;8.652;2022-09-21T08:07:12;2.15;;;1.95;;
51179;SDS011;37243;49.814;8.652;2022-09-21T08:09:41;2.88;;;2.38;;
51179;SDS011;37243;49.814;8.652;2022-09-21T08:12:09;5.18;;;3.13;;
51179;SDS011;37243;49.814;8.652;2022-09-21T08:14:37;2.97;;;2.78;;
51179;SDS011;37243;49.814;8.652;2022-09-21T08:17:09;3.05;;;2.75;;
51179;SDS011;37243;49.814;8.652;2022-09-21T08:19:37;3.53;;;2.88;;
51179;SDS011;37243;49.814;8.652;2022-09-21T08:22:06;2.35;;;2.25;;
51179;SDS011;37243;49.814;8.652;2022-09-21T08:24:36;4.13;;;2.63;;
51179;SDS011;37243;49.814;8.652;2022-09-21T08:27:05;2.72;;;2.50;;
51179;SDS011;37243;49.814;8.652;2022-09-21T08:29:33;2.47;;;2.28;;
51179;SDS011;37243;49.814;8.652;2022-09-21T08:32:01;2.60;;;2.40;;
51179;SDS011;37243;49.814;8.652;2022-09-21T08:34:33;2.20;;;2.00;;
51179;SDS011;37243;49.814;8.652;2022-09-21T08:37:01;4.32;;;2.47;;
51179;SDS011;37243;49.814;8.652;2022-09-21T08:39:30;2.15;;;2.05;;
51179;SDS011;37243;49.814;8.652;2022-09-21T08:42:04;2.67;;;2.25;;
51179;SDS011;37243;49.814;8.652;2022-09-21T08:44:40;2.45;;;2.25;;
51179;SDS011;37243;49.814;8.652;2022-09-21T08:47:11;2.38;;;2.17;;
51179;SDS011;37243;49.814;8.652;2022-09-21T08:49:48;2.08;;;1.98;;
51179;SDS011;37243;49.814;8.652;2022-09-21T08:52:19;2.33;;;1.98;;
51179;SDS011;37243;49.814;8.652;2022-09-21T08:54:50;2.65;;;2.00;;
51179;SDS011;37243;49.814;8.652;2022-09-21T08:57:24;1.83;;;1.73;;
51179;SDS011;37243;49.814;8.652;2022-09-21T08:59:56;2.05;;;1.92;;
51179;SDS011;37243;49.814;8.652;2022-09-21T09:02:32;3.13;;;2.00;;
51179;SDS011;37243;49.814;8.652;2022-09-21T09:05:15;2.00;;;1.90;;
51179;SDS011;37243;49.814;8.652;2022-09-21T09:08:05;4.45;;;1.70;;
51179;SDS011;37243;49.814;8.652;2022-09-21T09:10:48;2.38;;;1.85;;
51179;SDS011;37243;49.814;8.652;2022-09-21T09:13:30;2.25;;;1.70;;
51179;SDS011;37243;49.814;8.652;2022-09-21T09:16:12;2.88;;;1.83;;
51179;SDS011;37243;49.814;8.652;2022-09-21T09:18:47;2.15;;;1.95;;
51179;SDS011;37243;49.814;8.652;2022-09-21T09:21:21;1.90;;;1.80;;
51179;SDS011;37243;49.814;8.652;2022-09-21T09:23:55;2.20;;;2.00;;
51179;SDS011;37243;49.814;8.652;2022-09-21T09:26:29;2.33;;;1.80;;
51179;SDS011;37243;49.814;8.652;2022-09-21T09:29:10;2.42;;;1.90;;
51179;SDS011;37243;49.814;8.652;2022-09-21T09:31:45;1.83;;;1.73;;
51179;SDS011;37243;49.814;8.652;2022-09-21T09:34:16;2.50;;;1.95;;
51179;SDS011;37243;49.814;8.652;2022-09-21T09:36:53;1.98;;;1.75;;
51179;SDS011;37243;49.814;8.652;2022-09-21T09:39:25;1.90;;;1.75;;
51179;SDS011;37243;49.814;8.652;2022-09-21T09:41:59;1.67;;;1.58;;
51179;SDS011;37243;49.814;8.652;2022-09-21T09:47:33;1.90;;;1.80;;
51179;SDS011;37243;49.814;8.652;2022-09-21T09:50:11;1.65;;;1.48;;
51179;SDS011;37243;49.814;8.652;2022-09-21T09:52:48;1.70;;;1.60;;
51179;SDS011;37243;49.814;8.652;2022-09-21T09:55:21;2.00;;;1.80;;
51179;SDS011;37243;49.814;8.652;2022-09-21T09:57:54;1.50;;;1.40;;
51179;SDS011;37243;49.814;8.652;2022-09-21T10:00:23;1.30;;;1.20;;
51179;SDS011;37243;49.814;8.652;2022-09-21T10:02:52;1.92;;;1.30;;
51179;SDS011;37243;49.814;8.652;2022-09-21T10:05:23;2.30;;;1.67;;
51179;SDS011;37243;49.814;8.652;2022-09-21T10:08:00;1.58;;;1.48;;
51179;SDS011;37243;49.814;8.652;2022-09-21T10:10:30;1.80;;;1.70;;
51179;SDS011;37243;49.814;8.652;2022-09-21T10:13:02;1.52;;;1.42;;
51179;SDS011;37243;49.814;8.652;2022-09-21T10:15:38;1.20;;;1.20;;
51179;SDS011;37243;49.814;8.652;2022-09-21T10:18:19;1.52;;;1.40;;
51179;SDS011;37243;49.814;8.652;2022-09-21T10:20:53;1.10;;;1.10;;
51179;SDS011;37243;49.814;8.652;2022-09-21T10:23:26;1.40;;;1.30;;
51179;SDS011;37243;49.814;8.652;2022-09-21T10:25:57;1.40;;;1.30;;
51179;SDS011;37243;49.814;8.652;2022-09-21T10:28:28;1.92;;;1.42;;
51179;SDS011;37243;49.814;8.652;2022-09-21T10:31:06;1.48;;;1.42;;
51179;SDS011;37243;49.814;8.652;2022-09-21T10:33:42;1.27;;;1.17;;
51179;SDS011;37243;49.814;8.652;2022-09-21T10:36:25;1.50;;;1.40;;
51179;SDS011;37243;49.814;8.652;2022-09-21T10:38:58;1.40;;;1.30;;
51179;SDS011;37243;49.814;8.652;2022-09-21T10:41:47;1.23;;;1.17;;
51179;SDS011;37243;49.814;8.652;2022-09-21T10:44:18;1.40;;;1.30;;
51179;SDS011;37243;49.814;8.652;2022-09-21T10:46:48;1.58;;;1.40;;
51179;SDS011;37243;49.814;8.652;2022-09-21T10:49:19;1.25;;;1.17;;
51179;SDS011;37243;49.814;8.652;2022-09-21T10:51:49;1.50;;;1.40;;
51179;SDS011;37243;49.814;8.652;2022-09-21T10:54:25;1.23;;;1.13;;
51179;SDS011;37243;49.814;8.652;2022-09-21T10:56:58;1.27;;;1.23;;
51179;SDS011;37243;49.814;8.652;2022-09-21T10:59:29;1.48;;;1.38;;
51179;SDS011;37243;49.814;8.652;2022-09-21T11:01:59;1.40;;;1.30;;
51179;SDS011;37243;49.814;8.652;2022-09-21T11:04:29;1.10;;;1.10;;
51179;SDS011;37243;49.814;8.652;2022-09-21T11:07:08;1.20;;;1.20;;
51179;SDS011;37243;49.814;8.652;2022-09-21T11:09:47;1.13;;;1.02;;
51179;SDS011;37243;49.814;8.652;2022-09-21T11:12:24;1.38;;;1.27;;
51179;SDS011;37243;49.814;8.652;2022-09-21T11:15:01;1.15;;;1.10;;
51179;SDS011;37243;49.814;8.652;2022-09-21T11:17:42;1.42;;;1.20;;
51179;SDS011;37243;49.814;8.652;2022-09-21T11:20:19;1.60;;;1.05;;
51179;SDS011;37243;49.814;8.652;2022-09-21T11:22:55;1.00;;;0.93;;
51179;SDS011;37243;49.814;8.652;2022-09-21T11:25:37;1.27;;;1.10;;
51179;SDS011;37243;49.814;8.652;2022-09-21T11:28:12;1.10;;;1.10;;
51179;SDS011;37243;49.814;8.652;2022-09-21T11:30:54;1.05;;;1.05;;
51179;SDS011;37243;49.814;8.652;2022-09-21T11:33:37;1.05;;;1.05;;
51179;SDS011;37243;49.814;8.652;2022-09-21T11:36:18;0.98;;;0.95;;
51179;SDS011;37243;49.814;8.652;2022-09-21T11:38:54;1.15;;;1.00;;
51179;SDS011;37243;49.814;8.652;2022-09-21T11:41:36;0.88;;;0.88;;
51179;SDS011;37243;49.814;8.652;2022-09-21T11:44:30;1.05;;;0.98;;
51179;SDS011;37243;49.814;8.652;2022-09-21T11:47:12;1.17;;;1.00;;
51179;SDS011;37243;49.814;8.652;2022-09-21T11:52:57;1.38;;;1.00;;
51179;SDS011;37243;49.814;8.652;2022-09-21T11:55:45;1.20;;;1.10;;
51179;SDS011;37243;49.814;8.652;2022-09-21T11:58:25;1.85;;;1.10;;
51179;SDS011;37243;49.814;8.652;2022-09-21T12:01:06;1.75;;;1.13;;
51179;SDS011;37243;49.814;8.652;2022-09-21T12:03:53;1.40;;;1.30;;
51179;SDS011;37243;49.814;8.652;2022-09-21T12:06:36;2.10;;;1.20;;
51179;SDS011;37243;49.814;8.652;2022-09-21T12:09:24;1.00;;;1.00;;
51179;SDS011;37243;49.814;8.652;2022-09-21T12:12:03;2.83;;;1.02;;
51179;SDS011;37243;49.814;8.652;2022-09-21T12:14:39;1.15;;;0.88;;
51179;SDS011;37243;49.814;8.652;2022-09-21T12:17:15;1.00;;;0.95;;
51179;SDS011;37243;49.814;8.652;2022-09-21T12:19:50;1.20;;;1.10;;
51179;SDS011;37243;49.814;8.652;2022-09-21T12:22:28;1.05;;;1.05;;
51179;SDS011;37243;49.814;8.652;2022-09-21T12:25:00;1.73;;;1.10;;
51179;SDS011;37243;49.814;8.652;2022-09-21T12:27:33;1.23;;;1.05;;
51179;SDS011;37243;49.814;8.652;2022-09-21T12:30:10;1.27;;;1.17;;
51179;SDS011;37243;49.814;8.652;2022-09-21T12:32:47;0.80;;;0.80;;
51179;SDS011;37243;49.814;8.652;2022-09-21T12:35:24;2.30;;;1.05;;
51179;SDS011;37243;49.814;8.652;2022-09-21T12:37:58;1.90;;;1.20;;
51179;SDS011;37243;49.814;8.652;2022-09-21T12:40:34;0.80;;;0.80;;
51179;SDS011;37243;49.814;8.652;2022-09-21T12:43:10;1.40;;;0.95;;
51179;SDS011;37243;49.814;8.652;2022-09-21T12:45:50;3.15;;;0.90;;
51179;SDS011;37243;49.814;8.652;2022-09-21T12:48:25;2.22;;;1.05;;
51179;SDS011;37243;49.814;8.652;2022-09-21T12:50:57;2.55;;;1.00;;
51179;SDS011;37243;49.814;8.652;2022-09-21T12:53:31;1.10;;;0.77;;
51179;SDS011;37243;49.814;8.652;2022-09-21T12:56:04;1.95;;;1.00;;
51179;SDS011;37243;49.814;8.652;2022-09-21T12:58:45;1.63;;;0.90;;
51179;SDS011;37243;49.814;8.652;2022-09-21T13:01:28;1.02;;;0.95;;
51179;SDS011;37243;49.814;8.652;2022-09-21T13:04:02;1.48;;;0.90;;
51179;SDS011;37243;49.814;8.652;2022-09-21T13:06:46;2.30;;;0.95;;
51179;SDS011;37243;49.814;8.652;2022-09-21T13:09:26;1.00;;;0.85;;
51179;SDS011;37243;49.814;8.652;2022-09-21T13:11:57;1.10;;;0.93;;
51179;SDS011;37243;49.814;8.652;2022-09-21T13:14:29;0.65;;;0.65;;
51179;SDS011;37243;49.814;8.652;2022-09-21T13:17:03;1.40;;;0.98;;
51179;SDS011;37243;49.814;8.652;2022-09-21T13:19:33;1.00;;;0.88;;
51179;SDS011;37243;49.814;8.652;2022-09-21T13:22:09;4.82;;;1.00;;
51179;SDS011;37243;49.814;8.652;2022-09-21T13:24:44;1.48;;;0.93;;
51179;SDS011;37243;49.814;8.652;2022-09-21T13:27:37;1.40;;;0.93;;
51179;SDS011;37243;49.814;8.652;2022-09-21T13:30:29;2.65;;;1.15;;
51179;SDS011;37243;49.814;8.652;2022-09-21T13:33:03;1.73;;;0.98;;
51179;SDS011;37243;49.814;8.652;2022-09-21T13:35:59;0.80;;;0.80;;
51179;SDS011;37243;49.814;8.652;2022-09-21T13:41:37;1.35;;;0.75;;
51179;SDS011;37243;49.814;8.652;2022-09-21T13:44:17;2.72;;;0.70;;
51179;SDS011;37243;49.814;8.652;2022-09-21T13:46:48;0.80;;;0.80;;
51179;SDS011;37243;49.814;8.652;2022-09-21T13:49:25;1.20;;;1.10;;
51179;SDS011;37243;49.814;8.652;2022-09-21T13:51:58;1.55;;;0.70;;
51179;SDS011;37243;49.814;8.652;2022-09-21T13:54:31;1.23;;;1.00;;
51179;SDS011;37243;49.814;8.652;2022-09-21T13:59:58;2.00;;;0.90;;
51179;SDS011;37243;49.814;8.652;2022-09-21T14:02:33;2.67;;;0.77;;
51179;SDS011;37243;49.814;8.652;2022-09-21T14:05:08;0.70;;;0.70;;
51179;SDS011;37243;49.814;8.652;2022-09-21T14:07:52;2.25;;;0.73;;
51179;SDS011;37243;49.814;8.652;2022-09-21T14:10:22;1.00;;;0.90;;
51179;SDS011;37243;49.814;8.652;2022-09-21T14:12:53;0.93;;;0.70;;
51179;SDS011;37243;49.814;8.652;2022-09-21T14:15:32;1.13;;;0.55;;
51179;SDS011;37243;49.814;8.652;2022-09-21T14:18:07;2.85;;;1.10;;
51179;SDS011;37243;49.814;8.652;2022-09-21T14:26:44;1.67;;;0.90;;
51179;SDS011;37243;49.814;8.652;2022-09-21T14:29:20;1.75;;;1.00;;
51179;SDS011;37243;49.814;8.652;2022-09-21T14:31:53;1.75;;;0.73;;
51179;SDS011;37243;49.814;8.652;2022-09-21T14:34:24;1.42;;;0.80;;
51179;SDS011;37243;49.814;8.652;2022-09-21T14:37:02;1.08;;;0.80;;
51179;SDS011;37243;49.814;8.652;2022-09-21T14:39:39;1.75;;;0.90;;
51179;SDS011;37243;49.814;8.652;2022-09-21T14:42:12;1.30;;;0.88;;
51179;SDS011;37243;49.814;8.652;2022-09-21T14:44:43;0.70;;;0.63;;
51179;SDS011;37243;49.814;8.652;2022-09-21T14:50:13;1.55;;;0.80;;
51179;SDS011;37243;49.814;8.652;2022-09-21T14:52:57;1.30;;;0.80;;
51179;SDS011;37243;49.814;8.652;2022-09-21T14:55:41;0.60;;;0.60;;
51179;SDS011;37243;49.814;8.652;2022-09-21T14:58:23;0.63;;;0.50;;
51179;SDS011;37243;49.814;8.652;2022-09-21T15:03:56;1.30;;;0.60;;
51179;SDS011;37243;49.814;8.652;2022-09-21T15:06:36;2.00;;;0.80;;
51179;SDS011;37243;49.814;8.652;2022-09-21T15:09:27;0.70;;;0.70;;
51179;SDS011;37243;49.814;8.652;2022-09-21T15:12:20;0.70;;;0.70;;
51179;SDS011;37243;49.814;8.652;2022-09-21T15:14:57;0.77;;;0.60;;
51179;SDS011;37243;49.814;8.652;2022-09-21T15:17:32;1.98;;;0.85;;
51179;SDS011;37243;49.814;8.652;2022-09-21T15:20:13;0.60;;;0.60;;
51179;SDS011;37243;49.814;8.652;2022-09-21T15:22:43;2.38;;;0.77;;
51179;SDS011;37243;49.814;8.652;2022-09-21T15:25:14;0.70;;;0.70;;
51179;SDS011;37243;49.814;8.652;2022-09-21T15:27:43;0.52;;;0.52;;
51179;SDS011;37243;49.814;8.652;2022-09-21T15:30:18;2.83;;;0.90;;
51179;SDS011;37243;49.814;8.652;2022-09-21T15:32:50;2.08;;;0.70;;
51179;SDS011;37243;49.814;8.652;2022-09-21T15:35:21;1.85;;;0.50;;
51179;SDS011;37243;49.814;8.652;2022-09-21T15:37:52;2.20;;;0.60;;
51179;SDS011;37243;49.814;8.652;2022-09-21T15:40:24;1.50;;;0.77;;
51179;SDS011;37243;49.814;8.652;2022-09-21T15:42:58;1.42;;;0.98;;
51179;SDS011;37243;49.814;8.652;2022-09-21T15:45:29;2.65;;;1.10;;
51179;SDS011;37243;49.814;8.652;2022-09-21T15:48:01;2.65;;;1.30;;
51179;SDS011;37243;49.814;8.652;2022-09-21T15:50:36;1.50;;;1.40;;
51179;SDS011;37243;49.814;8.652;2022-09-21T15:53:07;3.95;;;1.63;;
51179;SDS011;37243;49.814;8.652;2022-09-21T15:55:47;3.03;;;1.83;;
51179;SDS011;37243;49.814;8.652;2022-09-21T15:58:20;2.85;;;1.85;;